Time;durP1;ratioP1;P1;durP2;ratioP2;P2;SDS_P1;SDS_P2;PMS_P1;PMS_P2;Temp;Humidity;BMP_temperature;BMP_pressure;BME280_temperature;BME280_humidity;BME280_pressure;Samples;Min_cycle;Max_cycle;Signal;HPM_P1;HPM_P2
2023/07/17 00:00:50;;;;;;;14.82;3.30;;;17.80;99.90;;;;;;4934440;29;20040;-70
2023/07/17 00:03:15;;;;;;;12.65;3.05;;;17.70;99.90;;;;;;4934803;29;20063;-68
2023/07/17 00:05:41;;;;;;;13.70;3.33;;;17.70;99.90;;;;;;4934503;29;20392;-68
2023/07/17 00:08:06;;;;;;;16.27;2.97;;;17.60;99.90;;;;;;4933446;29;20039;-68
2023/07/17 00:10:32;;;;;;;13.25;3.30;;;17.60;99.90;;;;;;4934280;29;20031;-69
2023/07/17 00:12:57;;;;;;;15.20;3.15;;;17.60;99.90;;;;;;4934319;29;20032;-68
2023/07/17 00:15:23;;;;;;;13.27;3.30;;;17.60;99.90;;;;;;4934510;29;20472;-69
2023/07/17 00:17:49;;;;;;;14.43;3.45;;;17.60;99.90;;;;;;4934343;29;20040;-68
2023/07/17 00:20:14;;;;;;;13.02;3.72;;;17.50;99.90;;;;;;4934710;29;20031;-68
2023/07/17 00:22:40;;;;;;;20.23;4.07;;;17.50;99.90;;;;;;4934633;29;20032;-69
2023/07/17 00:25:06;;;;;;;14.55;4.43;;;17.50;99.90;;;;;;4934599;29;20079;-69
2023/07/17 00:27:34;;;;;;;15.88;4.13;;;17.50;99.90;;;;;;4934396;29;20115;-69
2023/07/17 00:30:00;;;;;;;18.10;4.15;;;17.50;99.90;;;;;;4934185;29;20368;-70
2023/07/17 00:32:25;;;;;;;16.50;3.92;;;17.40;99.90;;;;;;4937336;29;20031;-69
2023/07/17 00:34:51;;;;;;;17.27;5.30;;;17.50;99.90;;;;;;4937730;29;20471;-68
2023/07/17 00:37:16;;;;;;;19.17;5.28;;;17.50;99.90;;;;;;4937688;29;20494;-68
2023/07/17 00:39:42;;;;;;;16.45;4.65;;;17.50;99.90;;;;;;4937371;29;20052;-69
2023/07/17 00:42:08;;;;;;;19.00;5.40;;;17.50;99.90;;;;;;4937758;29;20035;-69
2023/07/17 00:44:35;;;;;;;17.27;4.65;;;17.50;99.90;;;;;;4937943;29;20030;-69
2023/07/17 00:47:02;;;;;;;18.33;3.67;;;17.50;99.90;;;;;;4937873;29;20042;-69
2023/07/17 00:49:29;;;;;;;17.55;5.15;;;17.50;99.90;;;;;;4937697;29;20035;-69
2023/07/17 00:51:56;;;;;;;18.88;3.92;;;17.50;99.90;;;;;;4937634;29;20032;-69
2023/07/17 00:54:22;;;;;;;13.05;3.47;;;17.50;99.90;;;;;;4937544;29;20047;-68
2023/07/17 00:56:47;;;;;;;18.90;3.90;;;17.50;99.90;;;;;;4937628;29;20047;-68
2023/07/17 00:59:14;;;;;;;14.88;3.85;;;17.50;99.90;;;;;;4937568;29;20391;-68
2023/07/17 01:01:41;;;;;;;12.68;3.00;;;17.50;99.90;;;;;;4937873;29;20095;-69
2023/07/17 01:04:07;;;;;;;18.23;4.07;;;17.50;99.90;;;;;;4937676;29;20028;-69
2023/07/17 01:06:38;;;;;;;18.95;4.13;;;17.60;99.90;;;;;;4937156;29;20094;-69
2023/07/17 01:09:04;;;;;;;16.15;4.40;;;17.60;99.90;;;;;;4937357;29;20031;-70
2023/07/17 01:11:30;;;;;;;15.63;3.50;;;17.60;99.90;;;;;;4937297;29;20145;-69
2023/07/17 01:13:55;;;;;;;14.10;4.35;;;17.60;99.90;;;;;;4937396;29;20061;-70
2023/07/17 01:16:21;;;;;;;19.20;4.70;;;17.60;99.90;;;;;;4937058;29;20052;-70
2023/07/17 01:18:47;;;;;;;18.45;3.97;;;17.60;99.90;;;;;;4937053;29;20487;-70
2023/07/17 01:21:16;;;;;;;17.67;3.75;;;17.60;99.90;;;;;;4937355;29;20034;-69
2023/07/17 01:23:44;;;;;;;13.43;3.78;;;17.60;99.90;;;;;;4936606;29;20028;-68
2023/07/17 01:26:17;;;;;;;17.33;3.70;;;17.60;99.90;;;;;;4937073;29;20047;-69
2023/07/17 01:28:43;;;;;;;13.85;3.95;;;17.50;99.90;;;;;;4937182;29;20038;-69
2023/07/17 01:31:10;;;;;;;18.65;4.63;;;17.50;99.90;;;;;;4935653;29;20024;-70
2023/07/17 01:33:36;;;;;;;17.30;4.38;;;17.50;99.90;;;;;;4936653;29;20758;-69
2023/07/17 01:36:05;;;;;;;16.27;3.92;;;17.50;99.90;;;;;;4926254;29;20044;-69
2023/07/17 01:38:34;;;;;;;21.05;4.43;;;17.50;99.90;;;;;;4917776;29;20055;-69
2023/07/17 01:41:00;;;;;;;18.95;4.28;;;17.40;99.90;;;;;;4917892;29;20032;-68
2023/07/17 01:43:25;;;;;;;18.33;4.15;;;17.40;99.90;;;;;;4917878;29;20040;-69
2023/07/17 01:45:51;;;;;;;19.13;4.50;;;17.40;99.90;;;;;;4927597;29;20047;-70
2023/07/17 01:48:17;;;;;;;19.23;3.92;;;17.30;99.90;;;;;;4936354;29;20111;-70
2023/07/17 01:50:44;;;;;;;21.65;4.95;;;17.30;99.90;;;;;;4936396;29;20137;-69
2023/07/17 01:53:10;;;;;;;13.60;4.55;;;17.20;99.90;;;;;;4936532;29;20115;-70
2023/07/17 01:55:36;;;;;;;24.17;4.97;;;17.20;99.90;;;;;;4936766;29;20122;-69
2023/07/17 01:58:01;;;;;;;20.95;4.85;;;17.20;99.90;;;;;;4936415;29;20475;-69
2023/07/17 02:00:27;;;;;;;21.67;4.82;;;17.20;99.90;;;;;;4936513;29;20039;-69
2023/07/17 02:02:55;;;;;;;19.38;4.72;;;17.20;99.90;;;;;;4936201;29;20041;-68
2023/07/17 02:05:21;;;;;;;17.73;4.90;;;17.20;99.90;;;;;;4935781;29;20039;-69
2023/07/17 02:07:47;;;;;;;16.98;5.05;;;17.30;99.90;;;;;;4936394;29;20039;-68
2023/07/17 02:10:12;;;;;;;19.90;5.35;;;17.20;99.90;;;;;;4936002;29;20066;-69
2023/07/17 02:12:38;;;;;;;18.73;4.75;;;17.20;99.90;;;;;;4936118;29;20035;-69
2023/07/17 02:15:06;;;;;;;22.95;5.50;;;17.10;99.90;;;;;;4925632;29;20032;-69
2023/07/17 02:17:31;;;;;;;20.25;5.75;;;17.10;99.90;;;;;;4916798;29;20504;-68
2023/07/17 02:19:57;;;;;;;22.70;6.05;;;17.10;99.90;;;;;;4916985;29;20036;-69
2023/07/17 02:22:22;;;;;;;23.45;6.07;;;17.10;99.90;;;;;;4917052;29;20428;-69
2023/07/17 02:24:48;;;;;;;19.50;5.50;;;17.10;99.90;;;;;;4917071;29;20036;-69
2023/07/17 02:27:13;;;;;;;18.60;5.43;;;17.00;99.90;;;;;;4916845;29;20029;-68
2023/07/17 02:29:39;;;;;;;17.63;5.13;;;17.10;99.90;;;;;;4916759;29;20032;-69
2023/07/17 02:32:05;;;;;;;23.65;5.75;;;17.10;99.90;;;;;;4916806;29;20051;-69
2023/07/17 02:34:30;;;;;;;20.52;5.72;;;17.10;99.90;;;;;;4916646;29;20029;-66
2023/07/17 02:36:56;;;;;;;25.52;6.18;;;17.10;99.90;;;;;;4916638;29;20108;-67
2023/07/17 02:39:22;;;;;;;23.15;6.80;;;17.00;99.90;;;;;;4916317;29;20052;-66
2023/07/17 02:41:47;;;;;;;22.80;6.55;;;16.90;99.90;;;;;;4916781;29;20047;-66
2023/07/17 02:44:13;;;;;;;24.15;5.95;;;16.70;99.90;;;;;;4917104;29;20027;-67
2023/07/17 02:46:39;;;;;;;25.50;6.72;;;16.60;99.90;;;;;;4916507;29;20464;-67
2023/07/17 02:49:07;;;;;;;26.08;7.55;;;16.50;99.90;;;;;;4916447;29;20111;-66
2023/07/17 02:51:32;;;;;;;25.08;7.72;;;16.40;99.90;;;;;;4916550;29;20039;-67
2023/07/17 02:53:58;;;;;;;24.05;7.45;;;16.30;99.90;;;;;;4915902;29;20036;-67
2023/07/17 02:56:23;;;;;;;22.05;7.18;;;16.30;99.90;;;;;;4916502;29;20495;-67
2023/07/17 02:58:53;;;;;;;28.52;7.35;;;16.20;99.90;;;;;;4916605;29;20108;-66
2023/07/17 03:01:20;;;;;;;26.27;7.82;;;16.10;99.90;;;;;;4916514;29;20055;-66
2023/07/17 03:03:45;;;;;;;28.92;7.35;;;16.10;99.90;;;;;;4915960;29;20067;-66
2023/07/17 03:06:11;;;;;;;31.77;8.55;;;16.10;99.90;;;;;;4916427;29;20040;-66
2023/07/17 03:08:37;;;;;;;27.45;7.82;;;16.10;99.90;;;;;;4916249;29;20039;-66
2023/07/17 03:11:05;;;;;;;30.27;8.00;;;16.10;99.90;;;;;;4916504;29;20088;-66
2023/07/17 03:13:31;;;;;;;24.10;7.35;;;16.10;99.90;;;;;;4916357;29;20318;-67
2023/07/17 03:16:01;;;;;;;41.97;9.20;;;16.20;99.90;;;;;;4915886;29;20139;-67
2023/07/17 03:18:26;;;;;;;22.58;6.55;;;16.10;99.90;;;;;;4916032;29;20152;-67
2023/07/17 03:20:56;;;;;;;20.45;6.32;;;16.00;99.90;;;;;;4916341;29;20123;-67
2023/07/17 03:23:22;;;;;;;17.48;5.30;;;15.80;99.90;;;;;;4916031;29;20043;-67
2023/07/17 03:25:48;;;;;;;20.65;6.60;;;15.60;99.90;;;;;;4915946;29;20044;-67
2023/07/17 03:28:13;;;;;;;19.90;6.47;;;15.50;99.90;;;;;;4916196;29;20028;-68
2023/07/17 03:30:40;;;;;;;23.20;8.02;;;15.40;99.90;;;;;;4915827;29;20035;-68
2023/07/17 03:33:05;;;;;;;28.42;8.25;;;15.30;99.90;;;;;;4934359;29;20468;-68
2023/07/17 03:35:33;;;;;;;29.40;8.38;;;15.20;99.90;;;;;;4935134;29;20032;-68
2023/07/17 03:37:58;;;;;;;29.95;8.32;;;15.20;99.90;;;;;;4934870;29;20086;-67
2023/07/17 03:40:24;;;;;;;30.48;9.18;;;15.20;99.90;;;;;;4935161;29;20035;-68
2023/07/17 03:42:49;;;;;;;32.95;9.30;;;15.30;99.90;;;;;;4935189;29;20076;-68
2023/07/17 03:45:15;;;;;;;30.35;9.32;;;15.30;99.90;;;;;;4935182;29;20528;-67
2023/07/17 03:47:40;;;;;;;30.30;9.13;;;15.40;99.90;;;;;;4935144;29;20051;-67
2023/07/17 03:50:06;;;;;;;29.65;8.93;;;15.40;99.90;;;;;;4934974;29;20024;-67
2023/07/17 03:52:32;;;;;;;24.05;8.52;;;15.40;99.90;;;;;;4934718;29;20032;-67
2023/07/17 03:54:58;;;;;;;28.30;9.63;;;15.50;99.90;;;;;;4935208;29;20039;-67
2023/07/17 03:57:23;;;;;;;32.20;9.32;;;15.50;99.90;;;;;;4934984;29;20372;-67
2023/07/17 03:59:53;;;;;;;28.00;9.15;;;15.60;99.90;;;;;;4934390;29;20384;-67
2023/07/17 04:02:19;;;;;;;29.70;8.65;;;15.60;99.90;;;;;;4915686;29;20098;-67
2023/07/17 04:04:45;;;;;;;29.33;8.82;;;15.60;99.90;;;;;;4916335;29;20036;-67
2023/07/17 04:07:11;;;;;;;29.55;9.10;;;15.70;99.90;;;;;;4921603;29;20024;-67
2023/07/17 04:09:37;;;;;;;28.90;10.00;;;15.70;99.90;;;;;;4938451;29;20027;-67
2023/07/17 04:12:04;;;;;;;25.15;8.43;;;15.70;99.90;;;;;;4946422;29;20431;-67
2023/07/17 04:14:34;;;;;;;31.63;8.50;;;15.70;99.90;;;;;;4957205;28;20023;-67
2023/07/17 04:17:00;;;;;;;27.65;8.60;;;15.80;99.90;;;;;;4957510;28;20047;-66
2023/07/17 04:19:29;;;;;;;23.77;8.60;;;15.80;99.90;;;;;;4957615;28;20475;-66
2023/07/17 04:21:55;;;;;;;25.63;8.38;;;15.80;99.90;;;;;;4957658;28;20039;-67
2023/07/17 04:24:24;;;;;;;25.40;7.50;;;15.80;99.90;;;;;;4957498;28;20352;-67
2023/07/17 04:26:52;;;;;;;23.45;8.27;;;15.80;99.90;;;;;;4957268;28;20110;-67
2023/07/17 04:29:19;;;;;;;21.83;7.85;;;15.90;99.90;;;;;;4957256;28;20078;-67
2023/07/17 04:31:45;;;;;;;26.38;7.47;;;15.90;99.90;;;;;;4957143;28;20077;-67
2023/07/17 04:34:10;;;;;;;22.88;7.38;;;15.90;99.90;;;;;;4956924;29;20043;-68
2023/07/17 04:36:36;;;;;;;23.80;6.55;;;15.90;99.90;;;;;;4957260;29;20078;-67
2023/07/17 04:39:04;;;;;;;22.45;7.50;;;15.90;99.90;;;;;;4957060;29;20059;-66
2023/07/17 04:41:30;;;;;;;20.30;7.07;;;16.00;99.90;;;;;;4956727;28;20020;-66
2023/07/17 04:43:56;;;;;;;23.88;6.95;;;16.00;99.90;;;;;;4957379;28;20127;-66
2023/07/17 04:46:21;;;;;;;23.25;7.10;;;16.10;99.90;;;;;;4956630;29;20039;-66
2023/07/17 04:48:47;;;;;;;21.88;6.82;;;16.20;99.90;;;;;;4937368;29;20071;-67
2023/07/17 04:51:12;;;;;;;26.42;6.43;;;16.30;99.90;;;;;;4938212;29;20032;-67
2023/07/17 04:53:38;;;;;;;23.40;7.47;;;16.30;99.90;;;;;;4937687;29;20039;-67
2023/07/17 04:56:03;;;;;;;20.50;6.65;;;16.40;99.90;;;;;;4937364;29;20100;-67
2023/07/17 04:58:32;;;;;;;24.45;6.70;;;16.40;99.90;;;;;;4926743;29;20044;-67
2023/07/17 05:00:59;;;;;;;22.92;6.50;;;16.40;99.90;;;;;;4918645;29;20032;-67
2023/07/17 05:03:24;;;;;;;23.52;7.60;;;16.50;99.90;;;;;;4918060;29;20055;-66
2023/07/17 05:05:50;;;;;;;24.65;7.05;;;16.50;99.90;;;;;;4918066;29;20032;-67
2023/07/17 05:08:17;;;;;;;21.55;5.60;;;16.50;99.90;;;;;;4918779;29;20024;-67
2023/07/17 05:10:43;;;;;;;21.80;6.60;;;16.50;99.90;;;;;;4918299;29;20119;-67
2023/07/17 05:13:09;;;;;;;23.92;6.45;;;16.60;99.90;;;;;;4918365;29;20111;-67
2023/07/17 05:15:34;;;;;;;18.55;6.18;;;16.70;99.90;;;;;;4918461;29;20032;-67
2023/07/17 05:18:00;;;;;;;20.02;5.93;;;16.80;99.90;;;;;;4918075;29;20465;-66
2023/07/17 05:20:25;;;;;;;20.75;6.15;;;17.10;99.90;;;;;;4918586;29;20035;-66
2023/07/17 05:22:51;;;;;;;18.13;6.35;;;17.30;99.90;;;;;;4918360;29;20489;-67
2023/07/17 05:25:17;;;;;;;23.63;6.50;;;17.50;99.90;;;;;;4918110;29;20483;-67
2023/07/17 05:27:42;;;;;;;17.90;5.90;;;17.70;99.90;;;;;;4918334;29;20465;-67
2023/07/17 05:30:08;;;;;;;17.67;5.38;;;17.70;99.90;;;;;;4918176;29;20028;-67
2023/07/17 05:32:34;;;;;;;23.38;5.95;;;17.70;99.90;;;;;;4918003;29;20130;-67
2023/07/17 05:35:00;;;;;;;17.95;6.05;;;17.80;99.90;;;;;;4918134;29;20055;-67
2023/07/17 05:37:25;;;;;;;18.45;5.40;;;17.80;99.90;;;;;;4917905;29;20048;-67
2023/07/17 05:39:51;;;;;;;18.70;5.47;;;17.90;99.90;;;;;;4917814;29;20063;-67
2023/07/17 05:42:17;;;;;;;21.00;6.78;;;18.10;99.90;;;;;;4917274;29;20036;-66
2023/07/17 05:44:42;;;;;;;20.85;6.85;;;18.40;99.90;;;;;;4918177;29;20452;-68
2023/07/17 05:47:08;;;;;;;15.40;5.55;;;18.50;99.90;;;;;;4918550;29;20039;-66
2023/07/17 05:49:34;;;;;;;21.45;6.90;;;18.70;99.90;;;;;;4930625;29;20036;-66
2023/07/17 05:51:59;;;;;;;19.77;6.97;;;18.90;99.90;;;;;;4935460;29;20039;-67
2023/07/17 05:54:25;;;;;;;19.48;5.78;;;18.90;99.90;;;;;;4948074;29;20037;-68
2023/07/17 05:56:50;;;;;;;18.67;5.88;;;18.90;99.90;;;;;;4955958;29;20047;-67
2023/07/17 05:59:16;;;;;;;19.02;6.63;;;19.10;99.90;;;;;;4955154;28;20042;-67
2023/07/17 06:01:41;;;;;;;14.65;5.28;;;19.10;99.90;;;;;;4953932;29;20122;-68
2023/07/17 06:04:07;;;;;;;13.25;4.30;;;19.00;99.90;;;;;;4931033;29;20044;-68
2023/07/17 06:06:33;;;;;;;15.73;4.53;;;19.60;99.90;;;;;;4925320;29;20549;-67
2023/07/17 06:09:01;;;;;;;15.25;3.90;;;20.30;99.90;;;;;;4931512;29;20027;-68
2023/07/17 06:11:26;;;;;;;15.23;4.03;;;20.90;99.90;;;;;;4934150;29;20027;-67
2023/07/17 06:13:52;;;;;;;12.75;4.25;;;21.60;99.90;;;;;;4944046;29;20498;-67
2023/07/17 06:16:17;;;;;;;14.73;4.22;;;22.00;99.90;;;;;;4955416;29;20043;-67
2023/07/17 06:18:43;;;;;;;16.45;5.05;;;21.80;99.90;;;;;;4955350;28;20031;-68
2023/07/17 06:21:09;;;;;;;14.45;4.72;;;21.60;99.90;;;;;;4949932;29;20047;-67
2023/07/17 06:23:34;;;;;;;12.73;3.90;;;21.50;99.90;;;;;;4948162;29;20020;-67
2023/07/17 06:26:00;;;;;;;13.52;4.03;;;21.40;99.90;;;;;;4954686;29;20523;-66
2023/07/17 06:28:27;;;;;;;16.90;5.85;;;21.20;99.90;;;;;;4953998;28;20452;-67
2023/07/17 06:30:53;;;;;;;16.63;4.85;;;21.00;99.90;;;;;;4954584;28;20035;-67
2023/07/17 06:33:19;;;;;;;12.05;3.20;;;20.90;99.90;;;;;;4955235;28;20031;-67
2023/07/17 06:35:44;;;;;;;17.10;4.50;;;21.20;99.90;;;;;;4954761;28;20038;-67
2023/07/17 06:38:10;;;;;;;13.73;5.53;;;21.30;99.90;;;;;;4954302;29;20062;-67
2023/07/17 06:40:37;;;;;;;13.55;4.60;;;21.10;99.90;;;;;;4954769;29;20491;-67
2023/07/17 06:43:02;;;;;;;14.10;4.32;;;21.40;99.90;;;;;;4954783;28;20039;-67
2023/07/17 06:45:28;;;;;;;12.32;4.40;;;21.50;99.90;;;;;;4954811;29;20579;-67
2023/07/17 06:47:53;;;;;;;12.68;4.20;;;21.40;99.90;;;;;;4954481;29;20120;-67
2023/07/17 06:50:19;;;;;;;20.08;6.18;;;21.60;99.90;;;;;;4954993;29;20106;-67
2023/07/17 06:52:44;;;;;;;15.45;4.80;;;21.90;99.90;;;;;;4952915;29;20201;-67
2023/07/17 06:55:10;;;;;;;13.75;3.67;;;22.00;99.90;;;;;;4954323;29;20439;-67
2023/07/17 06:57:36;;;;;;;11.02;4.13;;;22.30;99.90;;;;;;4954185;29;20058;-67
2023/07/17 07:00:05;;;;;;;11.55;3.95;;;22.80;99.90;;;;;;4954196;28;20098;-67
2023/07/17 07:02:31;;;;;;;8.93;3.20;;;23.00;99.70;;;;;;4953918;28;20082;-67
2023/07/17 07:04:57;;;;;;;16.48;6.53;;;23.20;99.70;;;;;;4954370;28;20051;-67
2023/07/17 07:07:22;;;;;;;9.27;3.38;;;24.00;98.50;;;;;;4952275;29;20074;-67
2023/07/17 07:09:48;;;;;;;10.98;3.22;;;24.70;96.60;;;;;;4938315;29;20442;-67
2023/07/17 07:12:14;;;;;;;15.73;4.72;;;25.10;95.90;;;;;;4954267;28;20035;-67
2023/07/17 07:14:41;;;;;;;12.30;3.60;;;25.50;95.60;;;;;;4943073;29;20032;-67
2023/07/17 07:17:07;;;;;;;12.02;5.25;;;25.80;95.40;;;;;;4948535;29;20047;-67
2023/07/17 07:19:33;;;;;;;15.80;4.30;;;25.80;95.50;;;;;;4951952;28;20072;-67
2023/07/17 07:21:59;;;;;;;11.77;3.45;;;25.70;94.90;;;;;;4953483;28;20041;-68
2023/07/17 07:24:25;;;;;;;11.85;3.33;;;26.00;94.40;;;;;;4954230;28;20118;-67
2023/07/17 07:26:50;;;;;;;12.70;3.47;;;26.50;93.70;;;;;;4954024;28;20468;-67
2023/07/17 07:29:16;;;;;;;9.70;3.15;;;26.80;93.80;;;;;;4953904;29;20534;-68
2023/07/17 07:31:42;;;;;;;11.18;3.60;;;26.60;93.30;;;;;;4953956;29;20084;-67
2023/07/17 07:34:07;;;;;;;11.43;3.13;;;26.30;93.60;;;;;;4953755;29;20602;-68
2023/07/17 07:36:33;;;;;;;11.68;3.10;;;25.90;93.90;;;;;;4953321;29;20094;-67
2023/07/17 07:38:59;;;;;;;16.80;5.22;;;25.10;94.70;;;;;;4953627;29;20047;-68
2023/07/17 07:41:24;;;;;;;8.27;2.85;;;24.40;96.10;;;;;;4959810;28;20478;-67
2023/07/17 07:43:50;;;;;;;14.75;4.45;;;24.20;95.70;;;;;;4960489;28;20039;-68
2023/07/17 07:46:15;;;;;;;12.25;4.20;;;24.10;96.60;;;;;;4960344;28;20039;-69
2023/07/17 07:48:41;;;;;;;12.00;4.20;;;23.90;97.10;;;;;;4960541;29;20110;-69
2023/07/17 07:51:07;;;;;;;17.17;5.45;;;23.60;97.80;;;;;;4959922;28;20077;-69
2023/07/17 07:53:33;;;;;;;14.70;4.88;;;22.90;98.90;;;;;;4959999;29;20039;-68
2023/07/17 07:56:00;;;;;;;14.38;4.50;;;22.50;99.80;;;;;;4958683;28;20051;-67
2023/07/17 07:58:26;;;;;;;16.45;5.30;;;22.50;99.90;;;;;;4960270;28;20082;-67
2023/07/17 08:00:52;;;;;;;18.15;4.53;;;22.40;99.90;;;;;;4960329;29;20035;-67
2023/07/17 08:03:18;;;;;;;13.52;3.50;;;22.30;99.90;;;;;;4959780;28;20070;-67
2023/07/17 08:05:43;;;;;;;11.43;3.60;;;22.60;99.90;;;;;;4959807;28;20062;-67
2023/07/17 08:08:09;;;;;;;14.20;4.00;;;22.90;98.80;;;;;;4960110;28;20415;-67
2023/07/17 08:10:37;;;;;;;12.55;3.38;;;22.90;98.40;;;;;;4960040;29;20041;-68
2023/07/17 08:13:03;;;;;;;14.15;4.28;;;23.00;98.30;;;;;;4959800;28;20391;-67
2023/07/17 08:15:29;;;;;;;10.70;3.53;;;23.20;98.20;;;;;;4959692;28;20031;-67
2023/07/17 08:17:54;;;;;;;11.60;3.08;;;23.60;98.10;;;;;;4959839;28;20055;-69
2023/07/17 08:20:20;;;;;;;12.93;3.97;;;24.10;96.60;;;;;;4959767;29;20379;-68
2023/07/17 08:22:46;;;;;;;10.75;3.35;;;24.20;97.00;;;;;;4959806;29;20463;-67
2023/07/17 08:25:12;;;;;;;9.40;3.70;;;24.40;96.80;;;;;;4960116;28;20062;-69
2023/07/17 08:27:37;;;;;;;10.70;3.22;;;24.40;96.70;;;;;;4958446;29;20448;-67
2023/07/17 08:30:04;;;;;;;11.00;3.83;;;24.50;96.40;;;;;;4959456;28;20106;-68
2023/07/17 08:32:30;;;;;;;12.18;3.15;;;24.70;95.90;;;;;;4959567;28;20074;-68
2023/07/17 08:34:56;;;;;;;9.85;2.85;;;24.90;95.30;;;;;;4959388;28;20082;-67
2023/07/17 08:37:21;;;;;;;9.80;2.92;;;24.90;95.40;;;;;;4959703;28;20467;-68
2023/07/17 08:39:47;;;;;;;6.05;2.13;;;25.00;95.50;;;;;;4960065;29;20150;-68
2023/07/17 08:42:13;;;;;;;13.02;2.70;;;25.40;95.10;;;;;;4959754;28;20031;-68
2023/07/17 08:44:39;;;;;;;5.60;2.45;;;25.40;94.50;;;;;;4959473;29;20028;-67
2023/07/17 08:47:07;;;;;;;9.00;2.75;;;25.40;94.10;;;;;;4959678;28;20383;-68
2023/07/17 08:49:34;;;;;;;11.25;2.65;;;25.50;94.20;;;;;;4959458;28;20066;-68
2023/07/17 08:52:05;;;;;;;11.60;2.83;;;25.60;94.30;;;;;;4956857;28;20031;-68
2023/07/17 08:54:30;;;;;;;9.30;2.60;;;25.20;94.80;;;;;;4956844;28;20031;-68
2023/07/17 08:57:03;;;;;;;8.43;2.55;;;24.90;94.90;;;;;;4955768;29;20050;-67
2023/07/17 08:59:36;;;;;;;8.90;2.28;;;24.80;94.70;;;;;;4956086;28;20527;-67
2023/07/17 09:02:06;;;;;;;9.20;2.78;;;24.80;94.50;;;;;;4956168;28;20038;-67
2023/07/17 09:04:33;;;;;;;8.50;2.50;;;24.80;94.80;;;;;;4955296;29;20023;-67
2023/07/17 09:06:58;;;;;;;12.35;2.35;;;24.90;94.70;;;;;;4948489;28;20056;-68
2023/07/17 09:09:24;;;;;;;9.82;2.63;;;25.60;94.80;;;;;;4953126;29;20066;-68
2023/07/17 09:12:25;;;;;;;9.38;2.30;;;26.50;93.40;;;;;;4956410;28;20028;-67
2023/07/17 09:14:51;;;;;;;12.00;3.03;;;27.00;93.10;;;;;;4885754;29;20077;-67
2023/07/17 09:17:16;;;;;;;12.00;2.80;;;26.80;93.00;;;;;;4939465;29;20522;-67
2023/07/17 09:19:42;;;;;;;10.70;2.67;;;26.70;92.90;;;;;;4947346;29;20078;-68
2023/07/17 09:22:07;;;;;;;8.15;2.30;;;26.70;93.10;;;;;;4955862;28;20423;-68
2023/07/17 09:24:36;;;;;;;10.32;2.67;;;27.10;92.30;;;;;;4955942;29;20031;-67
2023/07/17 09:27:05;;;;;;;8.68;2.58;;;27.60;91.90;;;;;;4955744;28;20035;-68
2023/07/17 09:29:30;;;;;;;9.52;3.08;;;28.10;91.40;;;;;;4956099;28;20075;-68
2023/07/17 09:31:57;;;;;;;14.65;3.33;;;27.80;91.30;;;;;;4955569;29;20037;-68
2023/07/17 09:34:23;;;;;;;8.80;2.72;;;27.90;91.50;;;;;;4956259;28;20035;-69
2023/07/17 09:36:50;;;;;;;9.70;2.65;;;28.10;91.20;;;;;;4955940;28;20118;-69
2023/07/17 09:39:16;;;;;;;10.80;2.90;;;27.80;91.40;;;;;;4943485;28;20396;-68
2023/07/17 09:41:42;;;;;;;15.43;3.25;;;27.30;91.80;;;;;;4955018;29;20505;-69
2023/07/17 09:44:08;;;;;;;12.63;3.35;;;26.70;92.50;;;;;;4955829;29;20487;-68
2023/07/17 09:46:38;;;;;;;11.75;3.25;;;26.00;93.60;;;;;;4955745;29;20039;-67
2023/07/17 09:49:06;;;;;;;13.57;2.97;;;25.80;94.10;;;;;;4955371;28;20465;-68
2023/07/17 09:51:32;;;;;;;11.60;3.30;;;25.50;94.20;;;;;;4955457;28;20020;-66
2023/07/17 09:53:58;;;;;;;8.05;2.80;;;26.10;93.80;;;;;;4955079;28;20034;-68
2023/07/17 09:56:28;;;;;;;10.43;2.53;;;26.20;93.20;;;;;;4953960;29;20050;-69
2023/07/17 09:58:57;;;;;;;13.30;3.35;;;25.50;93.70;;;;;;4939512;28;20443;-69
2023/07/17 10:01:25;;;;;;;11.13;2.72;;;25.10;94.40;;;;;;4937272;29;20147;-68
2023/07/17 10:03:51;;;;;;;10.90;3.22;;;25.50;94.20;;;;;;4938065;29;20039;-67
2023/07/17 10:06:18;;;;;;;7.65;2.22;;;26.90;93.00;;;;;;4955546;28;20475;-67
2023/07/17 10:08:50;;;;;;;9.70;2.33;;;28.20;91.30;;;;;;4955308;28;20077;-68
2023/07/17 10:11:19;;;;;;;9.13;2.15;;;29.20;90.20;;;;;;4955317;28;20379;-69
2023/07/17 10:13:47;;;;;;;6.45;1.63;;;29.80;89.40;;;;;;4954915;28;20420;-69
2023/07/17 10:16:15;;;;;;;11.00;2.58;;;30.00;88.40;;;;;;4954947;28;20402;-68
2023/07/17 10:18:54;;;;;;;9.73;2.72;;;29.50;89.20;;;;;;4955177;28;20058;-68
2023/07/17 10:21:20;;;;;;;8.68;2.58;;;29.30;90.00;;;;;;4954732;28;20039;-68
2023/07/17 10:23:47;;;;;;;7.55;2.85;;;29.10;90.50;;;;;;4954667;28;20382;-69
2023/07/17 10:26:27;;;;;;;10.40;2.70;;;29.20;89.50;;;;;;4954717;28;20459;-68
2023/07/17 10:28:54;;;;;;;10.60;2.95;;;29.80;88.00;;;;;;4955041;28;20039;-69
2023/07/17 10:31:21;;;;;;;11.80;2.85;;;30.40;87.80;;;;;;4937376;28;20032;-68
2023/07/17 10:33:49;;;;;;;10.85;2.90;;;30.90;86.60;;;;;;4954439;29;20179;-68
2023/07/17 10:36:15;;;;;;;10.52;2.80;;;31.40;85.90;;;;;;4954869;28;20414;-68
2023/07/17 10:38:42;;;;;;;11.93;3.25;;;32.30;84.60;;;;;;4954985;28;20055;-68
2023/07/17 10:41:25;;;;;;;9.65;2.33;;;31.80;83.80;;;;;;4954817;28;20062;-68
2023/07/17 10:43:53;;;;;;;9.57;2.60;;;30.70;85.30;;;;;;4923560;29;20042;-68
2023/07/17 10:46:18;;;;;;;10.65;2.78;;;30.60;86.20;;;;;;4954088;28;20031;-68
2023/07/17 10:48:44;;;;;;;8.95;3.33;;;30.40;86.90;;;;;;4954678;29;20031;-67
2023/07/17 10:51:09;;;;;;;10.25;2.97;;;30.40;86.60;;;;;;4954702;29;20031;-68
2023/07/17 10:53:35;;;;;;;8.05;2.55;;;30.60;86.60;;;;;;4954407;29;20383;-68
2023/07/17 10:56:01;;;;;;;13.75;3.70;;;31.40;84.80;;;;;;4954330;29;20122;-70
2023/07/17 10:58:27;;;;;;;9.88;2.85;;;31.80;84.00;;;;;;4954435;28;20065;-69
2023/07/17 11:00:53;;;;;;;9.52;2.88;;;32.10;83.60;;;;;;4954447;29;20067;-68
2023/07/17 11:03:26;;;;;;;9.68;2.70;;;32.40;82.90;;;;;;4943975;28;20097;-67
2023/07/17 11:05:57;;;;;;;10.50;2.95;;;31.60;83.50;;;;;;4938923;29;20448;-68
2023/07/17 11:08:26;;;;;;;8.40;2.75;;;30.90;82.90;;;;;;4954339;28;20086;-68
2023/07/17 11:10:53;;;;;;;7.88;2.60;;;30.70;83.90;;;;;;4954165;28;20534;-68
2023/07/17 11:13:18;;;;;;;9.60;2.53;;;30.40;84.40;;;;;;4953960;28;20476;-68
2023/07/17 11:15:44;;;;;;;9.30;2.95;;;30.20;84.70;;;;;;4953511;28;20042;-68
2023/07/17 11:18:10;;;;;;;7.63;2.83;;;30.50;84.30;;;;;;4954070;28;20038;-68
2023/07/17 11:20:36;;;;;;;11.57;2.97;;;30.40;85.00;;;;;;4954286;29;20114;-68
2023/07/17 11:23:03;;;;;;;11.75;3.20;;;30.60;84.30;;;;;;4954083;28;20051;-68
2023/07/17 11:25:30;;;;;;;9.10;2.33;;;30.70;85.20;;;;;;4953939;28;20038;-68
2023/07/17 11:27:58;;;;;;;7.00;2.50;;;31.20;83.30;;;;;;4953778;28;20122;-68
2023/07/17 11:30:28;;;;;;;6.05;2.50;;;31.40;83.20;;;;;;4954079;28;20576;-68
2023/07/17 11:33:07;;;;;;;8.07;2.58;;;31.80;82.70;;;;;;4953273;28;20164;-68
2023/07/17 11:35:47;;;;;;;7.90;2.85;;;32.50;82.30;;;;;;4954231;28;20031;-68
2023/07/17 11:38:18;;;;;;;5.80;2.55;;;33.20;79.50;;;;;;4954019;28;20063;-68
2023/07/17 11:40:53;;;;;;;6.72;2.53;;;33.10;79.30;;;;;;4953852;28;20067;-68
2023/07/17 11:43:31;;;;;;;8.73;2.70;;;32.80;79.80;;;;;;4954065;29;20046;-69
2023/07/17 11:46:01;;;;;;;7.22;2.63;;;32.80;80.40;;;;;;4924625;29;20031;-69
2023/07/17 11:48:27;;;;;;;9.65;2.90;;;32.80;80.30;;;;;;4953737;28;20027;-69
2023/07/17 11:50:55;;;;;;;5.93;2.88;;;32.80;80.60;;;;;;4953960;28;20062;-69
2023/07/17 11:53:21;;;;;;;9.35;2.67;;;32.40;80.50;;;;;;4953747;28;20122;-70
2023/07/17 11:55:46;;;;;;;6.68;2.83;;;32.20;80.20;;;;;;4953475;29;20098;-69
2023/07/17 11:58:24;;;;;;;10.20;3.08;;;31.70;81.50;;;;;;4953879;29;20035;-69
2023/07/17 12:00:54;;;;;;;7.63;2.35;;;30.90;82.30;;;;;;4953656;28;20394;-69
2023/07/17 12:03:20;;;;;;;10.65;2.65;;;30.60;82.70;;;;;;4953678;28;20027;-67
2023/07/17 12:05:46;;;;;;;8.70;2.90;;;30.00;82.30;;;;;;4953929;29;20039;-68
2023/07/17 12:08:12;;;;;;;10.85;3.33;;;29.20;84.50;;;;;;4952716;29;20463;-68
2023/07/17 12:10:38;;;;;;;11.18;3.08;;;28.70;86.20;;;;;;4953742;28;20027;-68
2023/07/17 12:13:04;;;;;;;9.65;2.95;;;27.90;87.60;;;;;;4953387;29;20119;-67
2023/07/17 12:15:31;;;;;;;8.40;2.92;;;27.70;88.60;;;;;;4953616;28;20038;-68
2023/07/17 12:17:57;;;;;;;9.85;3.10;;;28.20;86.60;;;;;;4953216;28;20081;-69
2023/07/17 12:20:23;;;;;;;9.00;2.97;;;28.90;85.60;;;;;;4942871;28;20039;-69
2023/07/17 12:22:51;;;;;;;10.02;2.70;;;29.50;84.20;;;;;;4953334;28;20542;-68
2023/07/17 12:25:17;;;;;;;11.75;2.92;;;30.10;83.00;;;;;;4953498;28;20040;-69
2023/07/17 12:27:43;;;;;;;6.97;2.78;;;30.20;83.30;;;;;;4955469;28;20032;-69
2023/07/17 12:30:09;;;;;;;7.30;2.33;;;30.60;83.00;;;;;;4957287;28;20034;-69
2023/07/17 12:32:36;;;;;;;9.15;2.80;;;30.40;82.60;;;;;;4956960;28;20031;-69
2023/07/17 12:35:02;;;;;;;8.40;2.40;;;29.90;84.40;;;;;;4957669;28;20034;-69